createdAt,value
2018-12-12T00:00:47.689Z,25.73
2018-12-12T00:03:22.022Z,49.03
2018-12-12T00:05:56.376Z,26.47
2018-12-12T00:08:30.580Z,21.97
2018-12-12T00:11:06.059Z,20.87
2018-12-12T00:13:40.379Z,18.50
2018-12-12T00:16:14.581Z,17.07
2018-12-12T00:18:48.892Z,18.37
2018-12-12T00:21:23.272Z,21.63
2018-12-12T00:23:57.499Z,19.70
2018-12-12T00:26:31.902Z,21.10
2018-12-12T00:29:06.141Z,17.90
2018-12-12T00:31:40.338Z,17.27
2018-12-12T00:34:14.576Z,21.43
2018-12-12T00:36:48.842Z,20.53
2018-12-12T00:39:23.210Z,20.57
2018-12-12T00:41:57.476Z,18.67
2018-12-12T00:44:31.699Z,26.20
2018-12-12T00:47:06.410Z,19.97
2018-12-12T00:49:41.002Z,19.90
2018-12-12T00:52:16.360Z,18.33
2018-12-12T00:54:50.851Z,22.73
2018-12-12T00:57:25.321Z,23.83
2018-12-12T00:59:59.650Z,21.80
2018-12-12T01:02:33.869Z,19.97
2018-12-12T01:05:08.422Z,19.03
2018-12-12T01:07:42.762Z,20.17
2018-12-12T01:10:20.962Z,18.43
2018-12-12T01:12:56.950Z,20.40
2018-12-12T01:15:36.968Z,20.43
2018-12-12T01:18:15.382Z,19.67
2018-12-12T01:20:49.737Z,19.63
2018-12-12T01:23:24.062Z,17.57
2018-12-12T01:25:58.391Z,19.80
2018-12-12T01:28:32.815Z,17.13
2018-12-12T01:31:07.065Z,20.57
2018-12-12T01:33:41.318Z,17.83
2018-12-12T01:36:15.661Z,18.33
2018-12-12T01:38:49.883Z,21.00
2018-12-12T01:41:24.313Z,22.83
2018-12-12T01:43:58.617Z,17.57
2018-12-12T01:46:32.954Z,21.53
2018-12-12T01:49:07.337Z,18.27
2018-12-12T01:51:41.645Z,17.23
2018-12-12T01:54:15.922Z,23.67
2018-12-12T01:56:50.249Z,18.70
2018-12-12T01:59:24.551Z,16.93
2018-12-12T02:01:58.929Z,22.00
2018-12-12T02:04:33.270Z,19.77
2018-12-12T02:07:07.517Z,15.83
2018-12-12T02:09:42.373Z,18.10
2018-12-12T02:12:16.639Z,19.03
2018-12-12T02:14:51.032Z,14.40
2018-12-12T02:17:25.334Z,16.17
2018-12-12T02:19:59.709Z,14.40
2018-12-12T02:22:34.036Z,12.53
2018-12-12T02:25:08.387Z,14.53
2018-12-12T02:27:42.713Z,14.47
2018-12-12T02:30:20.053Z,14.73
2018-12-12T02:32:54.480Z,14.47
2018-12-12T02:35:28.990Z,15.13
2018-12-12T02:38:03.271Z,15.93
2018-12-12T02:40:37.741Z,14.90
2018-12-12T02:43:11.989Z,11.40
2018-12-12T02:45:46.376Z,16.77
2018-12-12T02:48:20.700Z,14.43
2018-12-12T02:50:54.895Z,15.57
2018-12-12T02:53:29.335Z,14.60
2018-12-12T02:56:03.701Z,15.23
2018-12-12T02:58:38.073Z,15.63
2018-12-12T03:01:12.441Z,13.87
2018-12-12T03:03:47.346Z,13.50
2018-12-12T03:06:21.629Z,13.87
2018-12-12T03:08:56.048Z,16.30
2018-12-12T03:11:30.451Z,14.17
2018-12-12T03:14:04.832Z,14.10
2018-12-12T03:16:39.781Z,10.77
2018-12-12T03:19:14.189Z,14.53
2018-12-12T03:21:48.476Z,11.57
2018-12-12T03:24:22.732Z,14.27
2018-12-12T03:26:57.069Z,14.40
2018-12-12T03:29:32.485Z,15.40
2018-12-12T03:32:06.723Z,10.43
2018-12-12T03:34:41.222Z,12.33
2018-12-12T03:37:15.573Z,10.57
2018-12-12T03:39:49.808Z,12.77
2018-12-12T03:42:24.477Z,12.93
2018-12-12T03:44:58.725Z,12.90
2018-12-12T03:47:33.022Z,18.90
2018-12-12T03:50:07.475Z,11.20
2018-12-12T03:52:41.706Z,9.13
2018-12-12T03:55:16.110Z,11.73
2018-12-12T03:57:50.326Z,16.17
2018-12-12T04:00:24.574Z,12.43
2018-12-12T04:02:58.885Z,12.13
2018-12-12T04:05:33.093Z,13.80
2018-12-12T04:08:07.404Z,10.87
2018-12-12T04:10:41.616Z,11.93
2018-12-12T04:13:15.976Z,11.77
2018-12-12T04:15:50.328Z,12.20
2018-12-12T04:18:24.628Z,11.47
2018-12-12T04:20:58.809Z,10.90
2018-12-12T04:23:33.433Z,16.97
2018-12-12T04:26:07.841Z,11.60
2018-12-12T04:28:42.122Z,11.13
2018-12-12T04:31:16.590Z,12.43
2018-12-12T04:33:50.789Z,15.07
2018-12-12T04:36:25.089Z,10.80
2018-12-12T04:38:59.402Z,11.47
2018-12-12T04:41:33.907Z,12.37
2018-12-12T04:44:08.366Z,15.00
2018-12-12T04:46:42.567Z,13.60
2018-12-12T04:49:16.794Z,14.17
2018-12-12T04:51:51.124Z,22.23
2018-12-12T04:54:25.422Z,14.43
2018-12-12T04:56:59.825Z,15.97
2018-12-12T04:59:34.250Z,16.23
2018-12-12T05:02:08.914Z,12.90
2018-12-12T05:04:43.875Z,23.27
2018-12-12T05:07:18.389Z,18.73
2018-12-12T05:09:52.755Z,25.97
2018-12-12T05:12:27.795Z,17.63
2018-12-12T05:15:02.152Z,13.63
2018-12-12T05:17:37.463Z,16.43
2018-12-12T05:20:11.664Z,14.87
2018-12-12T05:22:46.047Z,20.03
2018-12-12T05:25:20.400Z,20.00
2018-12-12T05:27:54.808Z,30.50
2018-12-12T05:30:29.497Z,20.23
2018-12-12T05:33:04.022Z,17.50
2018-12-12T05:35:42.346Z,16.60
2018-12-12T05:38:17.035Z,17.20
2018-12-12T05:40:51.473Z,19.03
2018-12-12T05:43:25.880Z,16.60
2018-12-12T05:46:00.470Z,19.10
2018-12-12T05:48:34.877Z,16.63
2018-12-12T05:51:10.139Z,15.70
2018-12-12T05:53:44.523Z,18.47
2018-12-12T05:56:18.734Z,17.17
2018-12-12T05:58:53.026Z,25.47
2018-12-12T06:01:27.364Z,20.30
2018-12-12T06:04:01.793Z,20.47
2018-12-12T06:06:36.081Z,19.50
2018-12-12T06:09:11.749Z,20.77
2018-12-12T06:11:46.183Z,20.17
2018-12-12T06:14:20.543Z,19.93
2018-12-12T06:16:55.025Z,21.83
2018-12-12T06:19:29.249Z,19.60
2018-12-12T06:22:03.592Z,23.77
2018-12-12T06:24:38.077Z,24.30
2018-12-12T06:27:12.397Z,21.20
2018-12-12T06:29:46.694Z,24.40
2018-12-12T06:32:21.082Z,25.67
2018-12-12T06:34:55.495Z,23.27
2018-12-12T06:37:29.941Z,25.20
2018-12-12T06:40:04.480Z,23.73
2018-12-12T06:42:38.771Z,26.83
2018-12-12T06:45:13.087Z,29.17
2018-12-12T06:47:47.445Z,22.23
2018-12-12T06:50:21.669Z,22.10
2018-12-12T06:52:56.009Z,19.07
2018-12-12T06:55:30.373Z,20.57
2018-12-12T06:58:04.745Z,21.47
2018-12-12T07:00:38.993Z,20.30
2018-12-12T07:03:13.507Z,19.63
2018-12-12T07:05:47.753Z,21.70
2018-12-12T07:08:22.135Z,23.17
2018-12-12T07:10:56.456Z,25.73
2018-12-12T07:13:35.699Z,21.30
2018-12-12T07:16:07.172Z,22.30
2018-12-12T07:18:41.502Z,20.40
2018-12-12T07:21:15.863Z,24.13
2018-12-12T07:23:50.119Z,22.17
2018-12-12T07:26:24.551Z,20.23
2018-12-12T07:28:58.872Z,20.60
2018-12-12T07:31:33.386Z,24.03
2018-12-12T07:34:07.618Z,24.90
2018-12-12T07:36:41.862Z,19.93
2018-12-12T07:39:18.096Z,25.93
2018-12-12T07:41:52.559Z,20.67
2018-12-12T07:44:26.872Z,21.20
2018-12-12T07:47:01.259Z,23.07
2018-12-12T07:49:35.527Z,18.27
2018-12-12T07:52:09.847Z,22.03
2018-12-12T07:54:44.200Z,23.53
2018-12-12T07:57:18.393Z,20.27
2018-12-12T07:59:52.578Z,19.33
2018-12-12T08:02:26.880Z,21.67
2018-12-12T08:05:01.204Z,20.27
2018-12-12T08:07:35.475Z,19.90
2018-12-12T08:10:09.930Z,20.67
2018-12-12T08:12:44.306Z,21.60
2018-12-12T08:15:18.722Z,19.23
2018-12-12T08:17:52.989Z,25.53
2018-12-12T08:20:27.212Z,22.77
2018-12-12T08:23:02.598Z,25.50
2018-12-12T08:25:38.297Z,22.17
2018-12-12T08:28:12.806Z,21.20
2018-12-12T08:30:47.130Z,31.20
2018-12-12T08:33:21.480Z,37.17
2018-12-12T08:35:55.865Z,22.47
2018-12-12T08:38:30.162Z,23.10
2018-12-12T08:41:04.542Z,25.13
2018-12-12T08:43:38.868Z,22.50
2018-12-12T08:46:13.232Z,21.97
2018-12-12T08:48:47.571Z,23.13
2018-12-12T08:51:21.788Z,23.53
2018-12-12T08:53:56.082Z,22.13
2018-12-12T08:56:30.293Z,18.73
2018-12-12T08:59:04.667Z,19.30
2018-12-12T09:01:38.985Z,20.63
2018-12-12T09:04:16.056Z,21.17
2018-12-12T09:06:50.428Z,21.57
2018-12-12T09:09:24.601Z,16.50
2018-12-12T09:11:58.843Z,19.27
2018-12-12T09:14:33.205Z,17.67
2018-12-12T09:17:09.817Z,18.53
2018-12-12T09:19:43.762Z,18.63
2018-12-12T09:22:18.051Z,17.70
2018-12-12T09:24:52.485Z,19.17
2018-12-12T09:27:26.796Z,24.60
2018-12-12T09:30:01.016Z,18.23
2018-12-12T09:32:35.250Z,19.40
2018-12-12T09:35:09.690Z,19.93
2018-12-12T09:37:44.046Z,18.30
2018-12-12T09:40:18.455Z,19.87
2018-12-12T09:42:52.752Z,20.27
2018-12-12T09:45:27.212Z,17.47
2018-12-12T09:48:01.481Z,18.83
2018-12-12T09:50:35.731Z,18.87
2018-12-12T09:53:10.038Z,15.80
2018-12-12T09:55:44.323Z,19.80
2018-12-12T09:58:18.616Z,23.03
2018-12-12T10:00:52.922Z,22.97
2018-12-12T10:03:31.124Z,18.00
2018-12-12T10:06:03.502Z,22.90
2018-12-12T10:08:37.709Z,19.97
2018-12-12T10:11:12.107Z,20.93
2018-12-12T10:13:46.405Z,19.90
2018-12-12T10:16:20.768Z,18.57
2018-12-12T10:18:55.135Z,22.90
2018-12-12T10:21:29.605Z,18.97
2018-12-12T10:24:04.070Z,22.57
2018-12-12T10:26:38.449Z,18.43
2018-12-12T10:29:12.683Z,21.43
2018-12-12T10:31:47.079Z,20.17
2018-12-12T10:34:21.415Z,19.97
2018-12-12T10:36:55.840Z,22.30
2018-12-12T10:39:30.254Z,22.33
2018-12-12T10:42:04.644Z,20.87
2018-12-12T10:44:38.844Z,25.57
2018-12-12T10:47:13.169Z,26.10
2018-12-12T10:49:47.501Z,24.83
2018-12-12T10:52:21.826Z,25.53
2018-12-12T10:54:56.042Z,26.93
2018-12-12T10:57:30.394Z,25.17
2018-12-12T11:00:05.794Z,24.57
2018-12-12T11:02:45.353Z,24.30
2018-12-12T11:05:19.665Z,26.60
2018-12-12T11:07:53.871Z,26.53
2018-12-12T11:10:28.283Z,22.17
2018-12-12T11:13:02.477Z,21.47
2018-12-12T11:15:36.872Z,19.67
2018-12-12T11:18:11.153Z,19.73
2018-12-12T11:20:45.580Z,20.27
2018-12-12T11:23:20.055Z,18.97
2018-12-12T11:25:54.457Z,19.03
2018-12-12T11:28:28.865Z,20.33
2018-12-12T11:31:03.139Z,20.30
2018-12-12T11:33:37.523Z,20.53
2018-12-12T11:36:11.956Z,16.30
2018-12-12T11:38:46.191Z,18.57
2018-12-12T11:41:20.418Z,20.20
2018-12-12T11:43:54.811Z,17.90
2018-12-12T11:46:29.165Z,19.20
2018-12-12T11:49:03.610Z,16.07
2018-12-12T11:51:37.857Z,17.27
2018-12-12T11:54:12.048Z,15.80
2018-12-12T11:56:46.416Z,21.00
2018-12-12T11:59:20.763Z,18.93
2018-12-12T12:01:55.133Z,16.27
2018-12-12T12:04:29.565Z,15.20
2018-12-12T12:07:03.944Z,18.83
2018-12-12T12:09:38.224Z,18.40
2018-12-12T12:12:12.417Z,15.73
2018-12-12T12:14:46.624Z,17.73
2018-12-12T12:17:20.845Z,16.83
2018-12-12T12:19:55.087Z,15.50
2018-12-12T12:22:29.594Z,16.77
2018-12-12T12:25:03.935Z,20.70
2018-12-12T12:27:38.111Z,18.27
2018-12-12T12:30:12.449Z,18.83
2018-12-12T12:32:47.681Z,18.67
2018-12-12T12:35:21.995Z,19.20
2018-12-12T12:37:56.201Z,17.00
2018-12-12T12:40:30.521Z,19.13
2018-12-12T12:43:04.744Z,18.37
2018-12-12T12:45:39.024Z,22.10
2018-12-12T12:48:13.371Z,20.87
2018-12-12T12:50:47.863Z,21.83
2018-12-12T12:53:22.160Z,20.90
2018-12-12T12:55:56.545Z,22.70
2018-12-12T12:58:30.887Z,21.17
2018-12-12T13:01:05.149Z,20.10
2018-12-12T13:03:39.501Z,18.03
2018-12-12T13:06:13.822Z,19.37
2018-12-12T13:08:48.033Z,35.00
2018-12-12T13:11:22.257Z,22.80
2018-12-12T13:13:56.570Z,17.73
2018-12-12T13:16:30.947Z,40.80
2018-12-12T13:19:05.231Z,54.00
2018-12-12T13:21:39.566Z,62.80
2018-12-12T13:24:13.944Z,24.67
2018-12-12T13:26:53.312Z,19.23
2018-12-12T13:29:24.400Z,16.93
2018-12-12T13:31:58.884Z,18.13
2018-12-12T13:34:33.137Z,19.93
2018-12-12T13:37:07.343Z,20.23
2018-12-12T13:39:41.561Z,16.93
2018-12-12T13:42:15.840Z,17.53
2018-12-12T13:44:50.061Z,22.37
2018-12-12T13:47:24.475Z,20.53
2018-12-12T13:49:59.027Z,18.27
2018-12-12T13:52:33.340Z,19.03
2018-12-12T13:55:07.781Z,20.13
2018-12-12T13:57:42.085Z,21.40
2018-12-12T14:00:16.582Z,18.87
2018-12-12T14:02:50.742Z,20.63
2018-12-12T14:05:26.106Z,18.83
2018-12-12T14:08:00.559Z,15.73
2018-12-12T14:10:36.035Z,22.60
2018-12-12T14:13:10.881Z,23.27
2018-12-12T14:15:48.866Z,20.00
2018-12-12T14:18:25.230Z,20.73
2018-12-12T14:21:00.394Z,21.70
2018-12-12T14:23:38.277Z,21.03
2018-12-12T14:26:13.307Z,21.83
2018-12-12T14:28:59.043Z,21.27
2018-12-12T14:31:41.931Z,20.83
2018-12-12T14:34:29.082Z,20.57
2018-12-12T14:37:01.307Z,25.23
2018-12-12T14:39:41.545Z,21.63
2018-12-12T14:42:15.801Z,21.73
2018-12-12T14:44:50.104Z,20.20
2018-12-12T14:47:24.466Z,26.73
2018-12-12T14:49:59.146Z,20.97
2018-12-12T14:52:33.534Z,21.60
2018-12-12T14:55:07.967Z,18.93
2018-12-12T14:57:42.283Z,23.57
2018-12-12T15:00:16.808Z,21.43
2018-12-12T15:02:52.170Z,28.03
2018-12-12T15:05:26.480Z,23.10
2018-12-12T15:08:00.871Z,26.77
2018-12-12T15:10:35.101Z,21.13
2018-12-12T15:13:09.464Z,22.80
2018-12-12T15:15:44.710Z,24.63
2018-12-12T15:18:18.993Z,21.77
2018-12-12T15:20:53.403Z,24.67
2018-12-12T15:23:27.666Z,21.57
2018-12-12T15:26:01.972Z,24.23
2018-12-12T15:28:36.236Z,24.00
2018-12-12T15:31:10.584Z,23.93
2018-12-12T15:33:44.810Z,22.30
2018-12-12T15:36:19.109Z,26.53
2018-12-12T15:38:55.115Z,23.80
2018-12-12T15:41:29.376Z,20.83
2018-12-12T15:44:03.854Z,20.70
2018-12-12T15:46:38.365Z,23.77
2018-12-12T15:49:13.509Z,22.37
2018-12-12T15:51:47.791Z,19.37
2018-12-12T15:54:25.296Z,19.70
2018-12-12T15:57:01.223Z,19.47
2018-12-12T15:59:38.936Z,21.47
2018-12-12T16:02:13.790Z,21.93
2018-12-12T16:04:54.307Z,19.83
2018-12-12T16:07:29.459Z,19.67
2018-12-12T16:10:07.598Z,18.30
2018-12-12T16:12:44.759Z,19.13
2018-12-12T16:15:19.085Z,18.37
2018-12-12T16:17:53.508Z,17.33
2018-12-12T16:20:27.849Z,15.37
2018-12-12T16:23:02.215Z,16.50
2018-12-12T16:25:36.668Z,18.57
2018-12-12T16:28:11.059Z,13.83
2018-12-12T16:30:45.330Z,18.27
2018-12-12T16:33:19.572Z,18.10
2018-12-12T16:35:53.856Z,17.13
2018-12-12T16:38:28.237Z,17.50
2018-12-12T16:41:02.661Z,16.53
2018-12-12T16:43:36.916Z,16.67
2018-12-12T16:46:11.209Z,19.33
2018-12-12T16:48:45.551Z,18.93
2018-12-12T16:51:19.914Z,20.33
2018-12-12T16:53:54.126Z,19.37
2018-12-12T16:56:28.551Z,26.70
2018-12-12T16:59:02.820Z,23.37
2018-12-12T17:01:37.091Z,23.20
2018-12-12T17:04:11.294Z,19.73
2018-12-12T17:06:45.661Z,16.67
2018-12-12T17:09:19.947Z,19.07
2018-12-12T17:11:54.292Z,19.27
2018-12-12T17:14:28.750Z,20.40
2018-12-12T17:17:03.201Z,21.27
2018-12-12T17:19:37.411Z,19.23
2018-12-12T17:22:11.743Z,20.87
2018-12-12T17:24:46.066Z,19.00
2018-12-12T17:27:20.398Z,21.03
2018-12-12T17:29:54.805Z,25.50
2018-12-12T17:32:29.117Z,25.10
2018-12-12T17:35:08.845Z,21.47
2018-12-12T17:37:40.209Z,21.07
2018-12-12T17:40:14.487Z,19.63
2018-12-12T17:42:48.757Z,18.53
2018-12-12T17:45:22.981Z,17.63
2018-12-12T17:47:57.286Z,16.87
2018-12-12T17:50:31.537Z,18.60
2018-12-12T17:53:06.035Z,16.13
2018-12-12T17:55:40.286Z,15.67
2018-12-12T17:58:14.717Z,13.67
2018-12-12T18:00:48.930Z,13.63
2018-12-12T18:03:23.277Z,12.97
2018-12-12T18:05:57.852Z,9.33
2018-12-12T18:08:32.075Z,14.13
2018-12-12T18:11:06.405Z,16.53
2018-12-12T18:13:40.736Z,11.57
2018-12-12T18:16:15.134Z,9.37
2018-12-12T18:18:50.453Z,8.93
2018-12-12T18:21:25.181Z,8.93
2018-12-12T18:23:59.578Z,9.63
2018-12-12T18:26:33.801Z,8.13
2018-12-12T18:29:08.361Z,7.67
2018-12-12T18:31:42.695Z,9.07
2018-12-12T18:34:17.218Z,9.07
2018-12-12T18:36:51.655Z,8.40
2018-12-12T18:39:25.905Z,10.23
2018-12-12T18:42:00.263Z,8.37
2018-12-12T18:44:34.556Z,7.50
2018-12-12T18:47:08.926Z,7.17
2018-12-12T18:49:43.277Z,10.90
2018-12-12T18:52:17.548Z,11.53
2018-12-12T18:54:51.927Z,6.67
2018-12-12T18:57:26.606Z,6.97
2018-12-12T19:00:01.030Z,9.00
2018-12-12T19:02:35.229Z,8.67
2018-12-12T19:05:09.605Z,6.00
2018-12-12T19:07:43.976Z,6.60
2018-12-12T19:10:18.299Z,6.40
2018-12-12T19:12:52.632Z,6.13
2018-12-12T19:15:26.857Z,7.60
2018-12-12T19:18:01.253Z,6.00
2018-12-12T19:20:35.605Z,6.50
2018-12-12T19:23:09.989Z,6.27
2018-12-12T19:25:45.041Z,6.73
2018-12-12T19:28:20.159Z,6.17
2018-12-12T19:30:55.125Z,5.53
2018-12-12T19:33:30.023Z,5.70
2018-12-12T19:36:04.726Z,6.07
2018-12-12T19:38:39.264Z,6.13
2018-12-12T19:41:13.465Z,5.90
2018-12-12T19:43:47.857Z,8.70
2018-12-12T19:46:22.305Z,9.10
2018-12-12T19:48:56.641Z,7.30
2018-12-12T19:51:30.859Z,6.60
2018-12-12T19:54:05.164Z,5.90
2018-12-12T19:56:39.355Z,6.00
2018-12-12T19:59:13.581Z,5.40
2018-12-12T20:01:47.974Z,6.67
2018-12-12T20:04:22.223Z,5.03
2018-12-12T20:06:56.557Z,6.07
2018-12-12T20:09:31.005Z,6.03
2018-12-12T20:12:05.368Z,5.50
2018-12-12T20:14:39.740Z,9.07
2018-12-12T20:17:14.059Z,6.20
2018-12-12T20:19:48.291Z,6.87
2018-12-12T20:22:22.489Z,6.07
2018-12-12T20:24:56.834Z,6.20
2018-12-12T20:27:31.290Z,5.93
2018-12-12T20:30:05.785Z,5.80
2018-12-12T20:32:40.009Z,6.90
2018-12-12T20:35:14.414Z,6.83
2018-12-12T20:37:48.724Z,11.23
2018-12-12T20:40:23.106Z,12.13
2018-12-12T20:42:57.394Z,9.43
2018-12-12T20:45:31.670Z,7.93
2018-12-12T20:48:06.032Z,7.50
2018-12-12T20:50:40.341Z,7.67
2018-12-12T20:53:14.812Z,8.13
2018-12-12T20:55:49.056Z,7.57
2018-12-12T20:58:23.388Z,7.43
2018-12-12T21:00:57.859Z,7.50
2018-12-12T21:03:32.215Z,7.20
2018-12-12T21:06:06.640Z,7.67
2018-12-12T21:08:40.849Z,8.50
2018-12-12T21:11:15.285Z,8.37
2018-12-12T21:13:49.494Z,8.27
2018-12-12T21:16:24.106Z,7.50
2018-12-12T21:18:58.413Z,9.30
2018-12-12T21:21:32.610Z,8.37
2018-12-12T21:24:06.797Z,8.50
2018-12-12T21:26:41.036Z,8.80
2018-12-12T21:29:16.859Z,8.33
2018-12-12T21:31:51.332Z,8.43
2018-12-12T21:34:25.741Z,10.77
2018-12-12T21:37:00.015Z,8.50
2018-12-12T21:39:34.350Z,9.93
2018-12-12T21:42:08.761Z,8.27
2018-12-12T21:44:43.084Z,7.70
2018-12-12T21:47:17.425Z,7.63
2018-12-12T21:49:51.684Z,10.07
2018-12-12T21:52:25.912Z,8.17
2018-12-12T21:55:00.393Z,7.90
2018-12-12T21:57:35.000Z,7.77
2018-12-12T22:00:10.286Z,7.83
2018-12-12T22:02:44.672Z,9.43
2018-12-12T22:05:19.008Z,7.70
2018-12-12T22:07:53.428Z,7.77
2018-12-12T22:10:27.808Z,9.50
2018-12-12T22:13:02.112Z,8.57
2018-12-12T22:15:36.338Z,8.63
2018-12-12T22:18:11.912Z,8.13
2018-12-12T22:20:46.383Z,10.07
2018-12-12T22:23:20.749Z,8.03
2018-12-12T22:25:54.977Z,8.10
2018-12-12T22:28:29.271Z,8.23
2018-12-12T22:31:03.741Z,8.63
2018-12-12T22:33:38.632Z,9.67
2018-12-12T22:36:14.315Z,10.07
2018-12-12T22:38:48.672Z,9.27
2018-12-12T22:41:22.989Z,9.73
2018-12-12T22:43:57.324Z,8.93
2018-12-12T22:46:31.551Z,8.97
2018-12-12T22:49:05.763Z,10.07
2018-12-12T22:51:39.996Z,10.30
2018-12-12T22:54:14.452Z,10.80
2018-12-12T22:56:48.709Z,8.97
2018-12-12T22:59:23.963Z,9.00
2018-12-12T23:01:58.283Z,10.33
2018-12-12T23:04:32.646Z,9.73
2018-12-12T23:07:07.009Z,9.53
2018-12-12T23:09:41.446Z,9.13
2018-12-12T23:12:15.898Z,9.70
2018-12-12T23:14:50.285Z,10.50
2018-12-12T23:17:24.498Z,10.97
2018-12-12T23:19:58.929Z,10.93
2018-12-12T23:22:33.173Z,10.03
2018-12-12T23:25:07.580Z,9.77
2018-12-12T23:27:42.661Z,8.70
2018-12-12T23:30:18.027Z,11.47
2018-12-12T23:32:52.253Z,10.83
2018-12-12T23:35:26.586Z,11.63
2018-12-12T23:38:00.967Z,13.23
2018-12-12T23:40:35.265Z,11.60
2018-12-12T23:43:09.626Z,13.03
2018-12-12T23:45:44.322Z,14.27
2018-12-12T23:48:18.583Z,13.47
2018-12-12T23:50:52.903Z,11.50
2018-12-12T23:53:27.498Z,11.87
2018-12-12T23:56:01.973Z,11.30
2018-12-12T23:58:36.237Z,12.40
